Time,TemperatureF,DewpointF,PressureIn,WindDirection,WindDirectionDegrees,WindSpeedMPH,WindSpeedGustMPH,Humidity,HourlyPrecipIn,Conditions,Clouds,dailyrainin,SolarRadiationWatts/m^2,SoftwareType,DateUTC
2014-09-22 00:00:00,46.0,38.0,-100.00,NNE,22,6.0,-999.0,74,-99.99,,,-99.99,0.000000,,2014-09-22 05:00:00,
2014-09-22 00:43:00,46.0,38.0,-100.00,NNE,22,6.0,-999.0,74,-99.99,,,-99.99,0.000000,,2014-09-22 05:43:00,
2014-09-22 00:53:00,46.0,38.0,-100.00,NNE,22,6.0,-999.0,74,-99.99,,,-99.99,0.000000,,2014-09-22 05:53:00,
2014-09-22 01:00:00,45.0,39.0,-100.00,NNE,22,5.0,-999.0,77,-99.99,,,-99.99,0.000000,,2014-09-22 06:00:00,
2014-09-22 01:43:00,45.0,39.0,-100.00,NNE,22,5.0,-999.0,77,-99.99,,,-99.99,0.000000,,2014-09-22 06:43:00,
2014-09-22 01:52:00,45.0,39.0,-100.00,NNE,22,5.0,-999.0,77,-99.99,,,-99.99,0.000000,,2014-09-22 06:52:00,
2014-09-22 02:00:00,44.0,39.0,-100.00,NNE,22,3.0,-999.0,82,-99.99,,,-99.99,0.000000,,2014-09-22 07:00:00,
2014-09-22 02:43:00,44.0,39.0,-100.00,NNE,22,3.0,-999.0,82,-99.99,,,-99.99,0.000000,,2014-09-22 07:43:00,
2014-09-22 02:52:00,44.0,39.0,-100.00,NNE,22,3.0,-999.0,82,-99.99,,,-99.99,0.000000,,2014-09-22 07:52:00,
2014-09-22 03:00:00,41.0,38.0,-100.00,North,0,0.0,-999.0,88,-99.99,,,-99.99,0.000000,,2014-09-22 08:00:00,
2014-09-22 03:42:00,41.0,38.0,-100.00,North,0,0.0,-999.0,88,-99.99,,,-99.99,0.000000,,2014-09-22 08:42:00,
2014-09-22 03:52:00,41.0,38.0,-100.00,North,0,0.0,-999.0,88,-99.99,,,-99.99,0.000000,,2014-09-22 08:52:00,
2014-09-22 05:00:00,36.0,35.0,-100.00,SW,225,0.0,-999.0,92,-99.99,,,-99.99,0.000000,,2014-09-22 10:00:00,
2014-09-22 05:43:00,36.0,35.0,-100.00,SW,225,0.0,-999.0,92,-99.99,,,-99.99,0.000000,,2014-09-22 10:43:00,
2014-09-22 05:54:00,36.0,35.0,-100.00,SW,225,0.0,-999.0,92,-99.99,,,-99.99,0.000000,,2014-09-22 10:54:00,
2014-09-22 06:00:00,35.0,34.0,-100.00,North,-999,0.0,-999.0,93,-99.99,,,-99.99,0.000000,,2014-09-22 11:00:00,
2014-09-22 06:42:00,35.0,34.0,-100.00,North,-999,0.0,-999.0,93,-99.99,,,-99.99,0.000000,,2014-09-22 11:42:00,
2014-09-22 06:52:00,35.0,34.0,-100.00,North,-999,0.0,-999.0,93,-99.99,,,-99.99,0.000000,,2014-09-22 11:52:00,
2014-09-22 07:00:00,36.0,35.0,-100.00,SE,135,0.0,-999.0,94,-99.99,,,-99.99,3.480000,,2014-09-22 12:00:00,
2014-09-22 07:42:00,36.0,35.0,-100.00,SE,135,0.0,-999.0,94,-99.99,,,-99.99,3.480000,,2014-09-22 12:42:00,
2014-09-22 07:53:00,36.0,35.0,-100.00,SE,135,0.0,-999.0,94,-99.99,,,-99.99,3.480000,,2014-09-22 12:53:00,
2014-09-22 08:00:00,43.0,41.0,-100.00,SW,225,1.0,-999.0,94,-99.99,,,-99.99,18.559999,,2014-09-22 13:00:00,
2014-09-22 08:43:00,43.0,41.0,-100.00,SW,225,1.0,-999.0,94,-99.99,,,-99.99,18.559999,,2014-09-22 13:43:00,
2014-09-22 08:52:00,43.0,41.0,-100.00,SW,225,1.0,-999.0,94,-99.99,,,-99.99,18.559999,,2014-09-22 13:52:00,
2014-09-22 09:00:00,50.0,44.0,-100.00,West,270,3.0,-999.0,80,-99.99,,,-99.99,54.520000,,2014-09-22 14:00:00,
2014-09-22 09:43:00,50.0,44.0,-100.00,West,270,3.0,-999.0,80,-99.99,,,-99.99,54.520000,,2014-09-22 14:43:00,
2014-09-22 09:52:00,50.0,44.0,-100.00,West,270,3.0,-999.0,80,-99.99,,,-99.99,54.520000,,2014-09-22 14:52:00,
2014-09-22 10:00:00,52.0,44.0,-100.00,WNW,292,2.0,-999.0,75,-99.99,,,-99.99,207.639999,,2014-09-22 15:00:00,
2014-09-22 10:45:00,52.0,44.0,-100.00,WNW,292,2.0,-999.0,75,-99.99,,,-99.99,207.639999,,2014-09-22 15:45:00,
2014-09-22 10:55:00,52.0,44.0,-100.00,WNW,292,2.0,-999.0,75,-99.99,,,-99.99,207.639999,,2014-09-22 15:55:00,
2014-09-22 11:00:00,54.0,45.0,-100.00,WSW,247,2.0,-999.0,72,-99.99,,,-99.99,290.000000,,2014-09-22 16:00:00,
2014-09-22 11:44:00,54.0,45.0,-100.00,WSW,247,2.0,-999.0,72,-99.99,,,-99.99,290.000000,,2014-09-22 16:44:00,
2014-09-22 11:54:00,54.0,45.0,-100.00,WSW,247,2.0,-999.0,72,-99.99,,,-99.99,290.000000,,2014-09-22 16:54:00,
2014-09-22 12:00:00,56.0,46.0,-100.00,SW,225,3.0,-999.0,69,-99.99,,,-99.99,430.359985,,2014-09-22 17:00:00,
2014-09-22 12:43:00,56.0,46.0,-100.00,SW,225,3.0,-999.0,69,-99.99,,,-99.99,430.359985,,2014-09-22 17:43:00,
2014-09-22 12:53:00,56.0,46.0,-100.00,SW,225,3.0,-999.0,69,-99.99,,,-99.99,430.359985,,2014-09-22 17:53:00,
2014-09-22 13:00:00,59.0,48.0,-100.00,WSW,247,4.0,-999.0,66,-99.99,,,-99.99,627.559998,,2014-09-22 18:00:00,
2014-09-22 13:42:00,59.0,48.0,-100.00,WSW,247,4.0,-999.0,66,-99.99,,,-99.99,627.559998,,2014-09-22 18:42:00,
2014-09-22 13:53:00,59.0,48.0,-100.00,WSW,247,4.0,-999.0,66,-99.99,,,-99.99,627.559998,,2014-09-22 18:53:00,
2014-09-22 14:00:00,62.0,48.0,-100.00,SW,225,5.0,-999.0,59,-99.99,,,-99.99,704.119995,,2014-09-22 19:00:00,
2014-09-22 14:42:00,62.0,48.0,-100.00,SW,225,5.0,-999.0,59,-99.99,,,-99.99,704.119995,,2014-09-22 19:42:00,
2014-09-22 14:53:00,62.0,48.0,-100.00,SW,225,5.0,-999.0,59,-99.99,,,-99.99,704.119995,,2014-09-22 19:53:00,
2014-09-22 15:00:00,65.0,47.0,-100.00,SW,225,5.0,-999.0,52,-99.99,,,-99.99,604.359985,,2014-09-22 20:00:00,
2014-09-22 15:43:00,65.0,47.0,-100.00,SW,225,5.0,-999.0,52,-99.99,,,-99.99,604.359985,,2014-09-22 20:43:00,
2014-09-22 15:52:00,65.0,47.0,-100.00,SW,225,5.0,-999.0,52,-99.99,,,-99.99,604.359985,,2014-09-22 20:52:00,
2014-09-22 16:00:00,66.0,47.0,-100.00,SW,225,5.0,-999.0,50,-99.99,,,-99.99,490.679993,,2014-09-22 21:00:00,
2014-09-22 16:44:00,66.0,47.0,-100.00,SW,225,5.0,-999.0,50,-99.99,,,-99.99,490.679993,,2014-09-22 21:44:00,
2014-09-22 16:54:00,66.0,47.0,-100.00,SW,225,5.0,-999.0,50,-99.99,,,-99.99,490.679993,,2014-09-22 21:54:00,